sensor_id;sensor_type;location;lat;lon;timestamp;temperature;humidity
22682;DHT22;11508;50.856;4.380;2023-03-29T00:00:36;9.30;99.90
22682;DHT22;11508;50.856;4.380;2023-03-29T00:03:01;9.40;99.90
22682;DHT22;11508;50.856;4.380;2023-03-29T00:05:28;9.30;99.90
22682;DHT22;11508;50.856;4.380;2023-03-29T00:07:58;9.30;99.90
22682;DHT22;11508;50.856;4.380;2023-03-29T00:10:29;9.20;99.90
22682;DHT22;11508;50.856;4.380;2023-03-29T00:12:55;9.30;99.90
22682;DHT22;11508;50.856;4.380;2023-03-29T00:15:21;9.30;99.90
22682;DHT22;11508;50.856;4.380;2023-03-29T00:17:47;9.30;99.90
22682;DHT22;11508;50.856;4.380;2023-03-29T00:20:13;9.30;99.90
22682;DHT22;11508;50.856;4.380;2023-03-29T00:22:40;9.40;99.90
22682;DHT22;11508;50.856;4.380;2023-03-29T00:25:10;9.40;99.90
22682;DHT22;11508;50.856;4.380;2023-03-29T00:27:36;9.40;99.90
22682;DHT22;11508;50.856;4.380;2023-03-29T00:30:03;9.40;99.90
22682;DHT22;11508;50.856;4.380;2023-03-29T00:32:30;9.30;99.90
22682;DHT22;11508;50.856;4.380;2023-03-29T00:34:57;9.40;99.90
22682;DHT22;11508;50.856;4.380;2023-03-29T00:37:22;9.40;99.90
22682;DHT22;11508;50.856;4.380;2023-03-29T00:39:54;9.30;99.90
22682;DHT22;11508;50.856;4.380;2023-03-29T00:42:20;9.40;99.90
22682;DHT22;11508;50.856;4.380;2023-03-29T00:45:09;9.40;99.90
22682;DHT22;11508;50.856;4.380;2023-03-29T00:48:14;9.40;99.90
22682;DHT22;11508;50.856;4.380;2023-03-29T00:50:37;9.40;99.90
22682;DHT22;11508;50.856;4.380;2023-03-29T00:53:11;9.30;99.90
22682;DHT22;11508;50.856;4.380;2023-03-29T00:55:51;9.50;99.90
22682;DHT22;11508;50.856;4.380;2023-03-29T00:58:23;9.50;99.90
22682;DHT22;11508;50.856;4.380;2023-03-29T01:00:59;9.50;99.90
22682;DHT22;11508;50.856;4.380;2023-03-29T01:03:30;9.40;99.90
22682;DHT22;11508;50.856;4.380;2023-03-29T01:06:03;9.40;99.90
22682;DHT22;11508;50.856;4.380;2023-03-29T01:08:34;9.40;99.90
22682;DHT22;11508;50.856;4.380;2023-03-29T01:11:17;9.50;99.90
22682;DHT22;11508;50.856;4.380;2023-03-29T01:13:55;9.50;99.90
22682;DHT22;11508;50.856;4.380;2023-03-29T01:16:24;9.40;1.00
22682;DHT22;11508;50.856;4.380;2023-03-29T01:18:51;9.50;1.00
22682;DHT22;11508;50.856;4.380;2023-03-29T01:24:06;9.50;1.00
22682;DHT22;11508;50.856;4.380;2023-03-29T01:29:30;9.50;20.50
22682;DHT22;11508;50.856;4.380;2023-03-29T01:34:45;9.60;44.50
22682;DHT22;11508;50.856;4.380;2023-03-29T01:37:21;9.50;99.90
22682;DHT22;11508;50.856;4.380;2023-03-29T01:39:50;9.50;99.90
22682;DHT22;11508;50.856;4.380;2023-03-29T01:45:01;9.60;99.90
22682;DHT22;11508;50.856;4.380;2023-03-29T01:47:53;9.70;99.90
22682;DHT22;11508;50.856;4.380;2023-03-29T01:50:45;9.60;99.90
22682;DHT22;11508;50.856;4.380;2023-03-29T01:53:20;9.60;99.90
22682;DHT22;11508;50.856;4.380;2023-03-29T01:56:08;9.60;99.90
22682;DHT22;11508;50.856;4.380;2023-03-29T01:58:39;9.50;1.00
22682;DHT22;11508;50.856;4.380;2023-03-29T02:01:07;9.50;50.40
22682;DHT22;11508;50.856;4.380;2023-03-29T02:03:37;9.60;12.00
22682;DHT22;11508;50.856;4.380;2023-03-29T02:06:09;9.60;54.60
22682;DHT22;11508;50.856;4.380;2023-03-29T02:08:38;9.60;99.90
22682;DHT22;11508;50.856;4.380;2023-03-29T02:11:05;9.60;99.90
22682;DHT22;11508;50.856;4.380;2023-03-29T02:13:32;9.60;99.90
22682;DHT22;11508;50.856;4.380;2023-03-29T02:15:58;9.60;99.90
22682;DHT22;11508;50.856;4.380;2023-03-29T02:18:27;9.50;99.90
22682;DHT22;11508;50.856;4.380;2023-03-29T02:20:56;9.60;99.90
22682;DHT22;11508;50.856;4.380;2023-03-29T02:23:30;9.60;1.00
22682;DHT22;11508;50.856;4.380;2023-03-29T02:25:59;9.60;1.00
22682;DHT22;11508;50.856;4.380;2023-03-29T02:28:25;9.60;99.90
22682;DHT22;11508;50.856;4.380;2023-03-29T02:33:29;9.50;99.90
22682;DHT22;11508;50.856;4.380;2023-03-29T02:36:02;9.60;99.90
22682;DHT22;11508;50.856;4.380;2023-03-29T02:38:29;9.70;99.90
22682;DHT22;11508;50.856;4.380;2023-03-29T02:40:57;9.70;99.90
22682;DHT22;11508;50.856;4.380;2023-03-29T02:43:24;9.80;99.90
22682;DHT22;11508;50.856;4.380;2023-03-29T02:45:51;9.70;99.90
22682;DHT22;11508;50.856;4.380;2023-03-29T02:48:19;9.70;1.00
22682;DHT22;11508;50.856;4.380;2023-03-29T02:50:49;9.70;99.90
22682;DHT22;11508;50.856;4.380;2023-03-29T02:53:19;9.70;99.90
22682;DHT22;11508;50.856;4.380;2023-03-29T02:55:47;9.70;99.90
22682;DHT22;11508;50.856;4.380;2023-03-29T02:58:13;9.70;1.00
22682;DHT22;11508;50.856;4.380;2023-03-29T03:00:43;9.80;1.00
22682;DHT22;11508;50.856;4.380;2023-03-29T03:03:10;9.80;1.00
22682;DHT22;11508;50.856;4.380;2023-03-29T03:05:37;9.90;16.40
22682;DHT22;11508;50.856;4.380;2023-03-29T03:08:04;9.90;1.00
22682;DHT22;11508;50.856;4.380;2023-03-29T03:10:35;9.80;99.90
22682;DHT22;11508;50.856;4.380;2023-03-29T03:13:01;9.90;99.90
22682;DHT22;11508;50.856;4.380;2023-03-29T03:15:26;9.90;99.90
22682;DHT22;11508;50.856;4.380;2023-03-29T03:17:52;9.90;99.90
22682;DHT22;11508;50.856;4.380;2023-03-29T03:20:19;9.90;99.90
22682;DHT22;11508;50.856;4.380;2023-03-29T03:22:47;9.90;1.00
22682;DHT22;11508;50.856;4.380;2023-03-29T03:25:17;9.90;1.00
22682;DHT22;11508;50.856;4.380;2023-03-29T03:27:47;9.90;99.90
22682;DHT22;11508;50.856;4.380;2023-03-29T03:30:13;9.90;99.90
22682;DHT22;11508;50.856;4.380;2023-03-29T03:32:41;9.90;1.00
22682;DHT22;11508;50.856;4.380;2023-03-29T03:35:08;9.90;1.00
22682;DHT22;11508;50.856;4.380;2023-03-29T03:37:34;9.80;99.90
22682;DHT22;11508;50.856;4.380;2023-03-29T03:40:00;9.90;99.90
22682;DHT22;11508;50.856;4.380;2023-03-29T03:42:28;10.00;93.10
22682;DHT22;11508;50.856;4.380;2023-03-29T03:44:54;10.00;99.90
22682;DHT22;11508;50.856;4.380;2023-03-29T03:47:21;10.00;99.90
22682;DHT22;11508;50.856;4.380;2023-03-29T03:49:47;10.00;99.90
22682;DHT22;11508;50.856;4.380;2023-03-29T03:52:12;10.00;99.90
22682;DHT22;11508;50.856;4.380;2023-03-29T03:54:38;10.00;1.00
22682;DHT22;11508;50.856;4.380;2023-03-29T03:57:04;10.00;1.00
22682;DHT22;11508;50.856;4.380;2023-03-29T03:59:30;9.90;95.90
22682;DHT22;11508;50.856;4.380;2023-03-29T04:01:56;9.80;99.90
22682;DHT22;11508;50.856;4.380;2023-03-29T04:04:22;9.90;1.00
22682;DHT22;11508;50.856;4.380;2023-03-29T04:06:48;10.00;99.90
22682;DHT22;11508;50.856;4.380;2023-03-29T04:09:15;10.00;99.90
22682;DHT22;11508;50.856;4.380;2023-03-29T04:11:40;9.90;1.00
22682;DHT22;11508;50.856;4.380;2023-03-29T04:14:06;9.80;1.00
22682;DHT22;11508;50.856;4.380;2023-03-29T04:16:32;9.80;1.00
22682;DHT22;11508;50.856;4.380;2023-03-29T04:18:57;9.80;99.90
22682;DHT22;11508;50.856;4.380;2023-03-29T04:21:23;9.70;99.90
22682;DHT22;11508;50.856;4.380;2023-03-29T04:23:49;9.80;99.90
22682;DHT22;11508;50.856;4.380;2023-03-29T04:26:15;9.80;99.90
22682;DHT22;11508;50.856;4.380;2023-03-29T04:28:42;9.90;99.90
22682;DHT22;11508;50.856;4.380;2023-03-29T04:31:11;9.90;99.90
22682;DHT22;11508;50.856;4.380;2023-03-29T04:33:37;9.80;99.90
22682;DHT22;11508;50.856;4.380;2023-03-29T04:36:04;9.80;99.90
22682;DHT22;11508;50.856;4.380;2023-03-29T04:38:31;9.90;99.90
22682;DHT22;11508;50.856;4.380;2023-03-29T04:41:01;9.90;99.90
22682;DHT22;11508;50.856;4.380;2023-03-29T04:43:29;9.80;99.90
22682;DHT22;11508;50.856;4.380;2023-03-29T04:45:55;9.90;99.90
22682;DHT22;11508;50.856;4.380;2023-03-29T04:48:23;9.80;99.90
22682;DHT22;11508;50.856;4.380;2023-03-29T04:50:48;9.70;99.90
22682;DHT22;11508;50.856;4.380;2023-03-29T04:53:15;9.70;99.90
22682;DHT22;11508;50.856;4.380;2023-03-29T04:55:40;9.70;99.90
22682;DHT22;11508;50.856;4.380;2023-03-29T04:58:06;9.80;99.90
22682;DHT22;11508;50.856;4.380;2023-03-29T05:00:32;9.90;99.90
22682;DHT22;11508;50.856;4.380;2023-03-29T05:02:58;9.90;99.90
22682;DHT22;11508;50.856;4.380;2023-03-29T05:05:24;9.90;99.90
22682;DHT22;11508;50.856;4.380;2023-03-29T05:07:49;9.80;99.90
22682;DHT22;11508;50.856;4.380;2023-03-29T05:10:15;9.90;99.90
22682;DHT22;11508;50.856;4.380;2023-03-29T05:12:41;10.00;99.90
22682;DHT22;11508;50.856;4.380;2023-03-29T05:15:07;9.90;99.90
22682;DHT22;11508;50.856;4.380;2023-03-29T05:17:34;9.80;99.90
22682;DHT22;11508;50.856;4.380;2023-03-29T05:20:00;9.90;99.90
22682;DHT22;11508;50.856;4.380;2023-03-29T05:22:26;10.00;99.90
22682;DHT22;11508;50.856;4.380;2023-03-29T05:24:53;9.90;99.90
22682;DHT22;11508;50.856;4.380;2023-03-29T05:27:19;9.90;99.90
22682;DHT22;11508;50.856;4.380;2023-03-29T05:29:47;10.00;99.90
22682;DHT22;11508;50.856;4.380;2023-03-29T05:32:13;10.10;99.90
22682;DHT22;11508;50.856;4.380;2023-03-29T05:34:39;10.10;99.90
22682;DHT22;11508;50.856;4.380;2023-03-29T05:37:05;10.00;99.90
22682;DHT22;11508;50.856;4.380;2023-03-29T05:39:31;10.20;99.90
22682;DHT22;11508;50.856;4.380;2023-03-29T05:41:58;10.20;99.90
22682;DHT22;11508;50.856;4.380;2023-03-29T05:44:24;10.20;99.90
22682;DHT22;11508;50.856;4.380;2023-03-29T05:46:50;10.20;99.90
22682;DHT22;11508;50.856;4.380;2023-03-29T05:49:16;10.20;99.90
22682;DHT22;11508;50.856;4.380;2023-03-29T05:51:42;10.10;99.90
22682;DHT22;11508;50.856;4.380;2023-03-29T05:54:10;10.10;99.90
22682;DHT22;11508;50.856;4.380;2023-03-29T05:56:36;10.10;99.90
22682;DHT22;11508;50.856;4.380;2023-03-29T05:59:01;10.10;99.90
22682;DHT22;11508;50.856;4.380;2023-03-29T06:01:27;10.20;99.90
22682;DHT22;11508;50.856;4.380;2023-03-29T06:03:53;10.30;99.90
22682;DHT22;11508;50.856;4.380;2023-03-29T06:06:20;10.20;99.90
22682;DHT22;11508;50.856;4.380;2023-03-29T06:08:46;10.30;99.90
22682;DHT22;11508;50.856;4.380;2023-03-29T06:11:13;10.30;99.90
22682;DHT22;11508;50.856;4.380;2023-03-29T06:13:39;10.30;99.90
22682;DHT22;11508;50.856;4.380;2023-03-29T06:16:08;10.40;99.90
22682;DHT22;11508;50.856;4.380;2023-03-29T06:18:34;10.20;99.90
22682;DHT22;11508;50.856;4.380;2023-03-29T06:21:00;10.30;99.90
22682;DHT22;11508;50.856;4.380;2023-03-29T06:23:27;10.40;99.90
22682;DHT22;11508;50.856;4.380;2023-03-29T06:25:53;10.40;99.90
22682;DHT22;11508;50.856;4.380;2023-03-29T06:28:20;10.40;99.90
22682;DHT22;11508;50.856;4.380;2023-03-29T06:30:46;10.40;99.90
22682;DHT22;11508;50.856;4.380;2023-03-29T06:33:12;10.40;99.90
22682;DHT22;11508;50.856;4.380;2023-03-29T06:35:41;10.00;99.90
22682;DHT22;11508;50.856;4.380;2023-03-29T06:38:09;10.30;99.90
22682;DHT22;11508;50.856;4.380;2023-03-29T06:40:35;10.30;99.90
22682;DHT22;11508;50.856;4.380;2023-03-29T06:43:03;10.40;99.90
22682;DHT22;11508;50.856;4.380;2023-03-29T06:45:34;10.40;99.90
22682;DHT22;11508;50.856;4.380;2023-03-29T06:48:01;10.40;99.90
22682;DHT22;11508;50.856;4.380;2023-03-29T06:50:30;10.50;99.90
22682;DHT22;11508;50.856;4.380;2023-03-29T06:52:56;10.50;99.90
22682;DHT22;11508;50.856;4.380;2023-03-29T06:55:22;10.60;99.90
22682;DHT22;11508;50.856;4.380;2023-03-29T06:57:49;10.60;99.90
22682;DHT22;11508;50.856;4.380;2023-03-29T07:00:15;10.60;99.90
22682;DHT22;11508;50.856;4.380;2023-03-29T07:02:41;10.60;99.90
22682;DHT22;11508;50.856;4.380;2023-03-29T07:05:07;10.80;99.90
22682;DHT22;11508;50.856;4.380;2023-03-29T07:07:37;10.90;99.90
22682;DHT22;11508;50.856;4.380;2023-03-29T07:10:31;10.90;99.90
22682;DHT22;11508;50.856;4.380;2023-03-29T07:12:59;11.00;99.90
22682;DHT22;11508;50.856;4.380;2023-03-29T07:15:26;11.00;99.90
22682;DHT22;11508;50.856;4.380;2023-03-29T07:17:52;11.20;87.20
22682;DHT22;11508;50.856;4.380;2023-03-29T07:20:19;11.10;26.20
22682;DHT22;11508;50.856;4.380;2023-03-29T07:22:46;11.10;54.40
22682;DHT22;11508;50.856;4.380;2023-03-29T07:25:13;10.90;99.90
22682;DHT22;11508;50.856;4.380;2023-03-29T07:27:40;10.90;99.90
22682;DHT22;11508;50.856;4.380;2023-03-29T07:30:08;11.00;99.90
22682;DHT22;11508;50.856;4.380;2023-03-29T07:32:40;10.90;99.90
22682;DHT22;11508;50.856;4.380;2023-03-29T07:35:07;11.10;99.90
22682;DHT22;11508;50.856;4.380;2023-03-29T07:37:34;11.00;99.90
22682;DHT22;11508;50.856;4.380;2023-03-29T07:40:04;11.10;99.90
22682;DHT22;11508;50.856;4.380;2023-03-29T07:42:34;11.20;64.70
22682;DHT22;11508;50.856;4.380;2023-03-29T07:45:02;11.10;91.30
22682;DHT22;11508;50.856;4.380;2023-03-29T07:47:28;11.10;89.00
22682;DHT22;11508;50.856;4.380;2023-03-29T07:49:55;11.20;52.50
22682;DHT22;11508;50.856;4.380;2023-03-29T07:52:21;11.20;32.50
22682;DHT22;11508;50.856;4.380;2023-03-29T07:54:47;11.40;23.20
22682;DHT22;11508;50.856;4.380;2023-03-29T07:57:12;11.20;1.00
22682;DHT22;11508;50.856;4.380;2023-03-29T07:59:38;11.10;93.00
22682;DHT22;11508;50.856;4.380;2023-03-29T08:02:05;11.10;99.90
22682;DHT22;11508;50.856;4.380;2023-03-29T08:04:31;11.20;96.50
22682;DHT22;11508;50.856;4.380;2023-03-29T08:06:57;11.40;37.90
22682;DHT22;11508;50.856;4.380;2023-03-29T08:09:22;11.50;1.00
22682;DHT22;11508;50.856;4.380;2023-03-29T08:11:48;11.50;1.00
22682;DHT22;11508;50.856;4.380;2023-03-29T08:14:14;11.60;1.00
22682;DHT22;11508;50.856;4.380;2023-03-29T08:16:39;11.50;1.00
22682;DHT22;11508;50.856;4.380;2023-03-29T08:19:05;11.50;1.00
22682;DHT22;11508;50.856;4.380;2023-03-29T08:21:31;11.60;1.00
22682;DHT22;11508;50.856;4.380;2023-03-29T08:23:57;11.60;1.00
22682;DHT22;11508;50.856;4.380;2023-03-29T08:26:23;11.80;1.00
22682;DHT22;11508;50.856;4.380;2023-03-29T08:28:48;11.90;1.00
22682;DHT22;11508;50.856;4.380;2023-03-29T08:31:14;12.30;99.90
22682;DHT22;11508;50.856;4.380;2023-03-29T08:33:40;12.70;99.90
22682;DHT22;11508;50.856;4.380;2023-03-29T08:36:08;12.80;99.90
22682;DHT22;11508;50.856;4.380;2023-03-29T08:38:34;12.60;99.90
22682;DHT22;11508;50.856;4.380;2023-03-29T08:41:00;12.60;1.00
22682;DHT22;11508;50.856;4.380;2023-03-29T08:49:07;12.20;99.90
22682;DHT22;11508;50.856;4.380;2023-03-29T08:51:50;12.30;99.90
22682;DHT22;11508;50.856;4.380;2023-03-29T08:54:22;12.30;99.90
22682;DHT22;11508;50.856;4.380;2023-03-29T08:56:50;12.40;99.90
22682;DHT22;11508;50.856;4.380;2023-03-29T08:59:23;12.30;99.90
22682;DHT22;11508;50.856;4.380;2023-03-29T09:01:52;12.40;99.90
22682;DHT22;11508;50.856;4.380;2023-03-29T09:04:25;12.40;99.90
22682;DHT22;11508;50.856;4.380;2023-03-29T09:06:52;12.50;99.90
22682;DHT22;11508;50.856;4.380;2023-03-29T09:09:20;12.80;1.00
22682;DHT22;11508;50.856;4.380;2023-03-29T09:20:29;13.00;1.00
22682;DHT22;11508;50.856;4.380;2023-03-29T09:25:44;12.90;1.00
22682;DHT22;11508;50.856;4.380;2023-03-29T09:30:43;12.70;99.90
22682;DHT22;11508;50.856;4.380;2023-03-29T09:33:27;12.70;1.00
22682;DHT22;11508;50.856;4.380;2023-03-29T09:38:45;13.10;99.90
22682;DHT22;11508;50.856;4.380;2023-03-29T09:41:32;13.40;99.90
22682;DHT22;11508;50.856;4.380;2023-03-29T09:44:04;13.30;99.90
22682;DHT22;11508;50.856;4.380;2023-03-29T09:47:07;13.60;99.90
22682;DHT22;11508;50.856;4.380;2023-03-29T09:49:38;14.20;99.90
22682;DHT22;11508;50.856;4.380;2023-03-29T09:52:12;14.30;1.00
22682;DHT22;11508;50.856;4.380;2023-03-29T09:54:39;14.20;97.00
22682;DHT22;11508;50.856;4.380;2023-03-29T09:57:05;14.30;1.00
22682;DHT22;11508;50.856;4.380;2023-03-29T09:59:31;14.30;99.90
22682;DHT22;11508;50.856;4.380;2023-03-29T10:02:08;14.20;99.90
22682;DHT22;11508;50.856;4.380;2023-03-29T10:04:35;14.20;14.00
22682;DHT22;11508;50.856;4.380;2023-03-29T10:07:01;14.50;31.60
22682;DHT22;11508;50.856;4.380;2023-03-29T10:09:29;14.40;99.90
22682;DHT22;11508;50.856;4.380;2023-03-29T10:11:59;14.50;1.00
22682;DHT22;11508;50.856;4.380;2023-03-29T10:14:37;14.30;1.00
22682;DHT22;11508;50.856;4.380;2023-03-29T10:17:14;14.40;1.00
22682;DHT22;11508;50.856;4.380;2023-03-29T10:19:57;14.80;99.90
22682;DHT22;11508;50.856;4.380;2023-03-29T10:22:32;15.00;99.90
22682;DHT22;11508;50.856;4.380;2023-03-29T10:24:59;14.80;99.90
22682;DHT22;11508;50.856;4.380;2023-03-29T10:27:29;14.90;72.60
22682;DHT22;11508;50.856;4.380;2023-03-29T10:29:57;15.60;99.90
22682;DHT22;11508;50.856;4.380;2023-03-29T10:32:37;15.70;99.90
22682;DHT22;11508;50.856;4.380;2023-03-29T10:37:42;16.70;99.90
22682;DHT22;11508;50.856;4.380;2023-03-29T10:42:52;16.70;99.90
22682;DHT22;11508;50.856;4.380;2023-03-29T10:45:29;16.00;89.10
22682;DHT22;11508;50.856;4.380;2023-03-29T10:47:56;15.70;1.00
22682;DHT22;11508;50.856;4.380;2023-03-29T10:50:23;15.60;99.90
22682;DHT22;11508;50.856;4.380;2023-03-29T10:52:49;15.60;81.30
22682;DHT22;11508;50.856;4.380;2023-03-29T10:55:16;15.10;99.90
22682;DHT22;11508;50.856;4.380;2023-03-29T10:57:54;14.90;99.90
22682;DHT22;11508;50.856;4.380;2023-03-29T11:00:39;14.90;99.90
22682;DHT22;11508;50.856;4.380;2023-03-29T11:06:00;14.80;14.20
22682;DHT22;11508;50.856;4.380;2023-03-29T11:16:56;15.20;99.90
22682;DHT22;11508;50.856;4.380;2023-03-29T11:28:12;15.90;1.00
22682;DHT22;11508;50.856;4.380;2023-03-29T11:30:59;15.70;99.90
22682;DHT22;11508;50.856;4.380;2023-03-29T11:36:15;15.70;99.90
22682;DHT22;11508;50.856;4.380;2023-03-29T11:38:56;15.70;1.00
22682;DHT22;11508;50.856;4.380;2023-03-29T11:41:29;15.20;99.90
22682;DHT22;11508;50.856;4.380;2023-03-29T11:44:12;15.30;1.00
22682;DHT22;11508;50.856;4.380;2023-03-29T11:47:26;15.60;99.90
22682;DHT22;11508;50.856;4.380;2023-03-29T11:52:05;15.80;99.90
22682;DHT22;11508;50.856;4.380;2023-03-29T11:57:26;15.90;1.00
22682;DHT22;11508;50.856;4.380;2023-03-29T12:00:26;16.40;1.00
22682;DHT22;11508;50.856;4.380;2023-03-29T12:02:56;17.10;1.00
22682;DHT22;11508;50.856;4.380;2023-03-29T12:05:31;17.10;99.90
22682;DHT22;11508;50.856;4.380;2023-03-29T12:08:22;16.60;1.00
22682;DHT22;11508;50.856;4.380;2023-03-29T12:11:06;16.10;79.10
22682;DHT22;11508;50.856;4.380;2023-03-29T12:13:36;16.10;99.90
22682;DHT22;11508;50.856;4.380;2023-03-29T12:16:58;16.10;99.90
22682;DHT22;11508;50.856;4.380;2023-03-29T12:19:03;15.90;99.90
22682;DHT22;11508;50.856;4.380;2023-03-29T12:21:31;16.10;1.00
22682;DHT22;11508;50.856;4.380;2023-03-29T12:23:58;16.40;1.00
22682;DHT22;11508;50.856;4.380;2023-03-29T12:31:59;17.30;1.00
22682;DHT22;11508;50.856;4.380;2023-03-29T12:40:44;17.60;99.90
22682;DHT22;11508;50.856;4.380;2023-03-29T12:43:31;17.20;99.90
22682;DHT22;11508;50.856;4.380;2023-03-29T12:46:24;16.80;1.00
22682;DHT22;11508;50.856;4.380;2023-03-29T12:48:56;16.60;1.00
22682;DHT22;11508;50.856;4.380;2023-03-29T12:51:31;16.50;1.00
22682;DHT22;11508;50.856;4.380;2023-03-29T12:54:19;16.70;99.90
22682;DHT22;11508;50.856;4.380;2023-03-29T13:07:43;16.50;99.90
22682;DHT22;11508;50.856;4.380;2023-03-29T13:10:51;17.00;99.90
22682;DHT22;11508;50.856;4.380;2023-03-29T13:13:17;17.30;99.90
22682;DHT22;11508;50.856;4.380;2023-03-29T13:15:46;17.20;99.90
22682;DHT22;11508;50.856;4.380;2023-03-29T13:18:37;17.20;1.00
22682;DHT22;11508;50.856;4.380;2023-03-29T13:23:55;17.50;99.90
22682;DHT22;11508;50.856;4.380;2023-03-29T13:29:51;17.20;1.00
22682;DHT22;11508;50.856;4.380;2023-03-29T13:35:30;17.30;99.90
22682;DHT22;11508;50.856;4.380;2023-03-29T13:38:29;17.40;99.90
22682;DHT22;11508;50.856;4.380;2023-03-29T13:40:58;17.70;1.00
22682;DHT22;11508;50.856;4.380;2023-03-29T13:43:31;17.70;99.90
22682;DHT22;11508;50.856;4.380;2023-03-29T13:48:51;17.60;99.90
22682;DHT22;11508;50.856;4.380;2023-03-29T13:51:31;17.60;1.00
22682;DHT22;11508;50.856;4.380;2023-03-29T13:54:57;17.60;99.90
22682;DHT22;11508;50.856;4.380;2023-03-29T13:57:33;17.70;99.90
22682;DHT22;11508;50.856;4.380;2023-03-29T14:00:20;17.70;99.90
22682;DHT22;11508;50.856;4.380;2023-03-29T14:03:10;17.90;99.90
22682;DHT22;11508;50.856;4.380;2023-03-29T14:05:40;17.90;99.90
22682;DHT22;11508;50.856;4.380;2023-03-29T14:08:12;17.90;1.00
22682;DHT22;11508;50.856;4.380;2023-03-29T14:10:41;17.90;1.00
22682;DHT22;11508;50.856;4.380;2023-03-29T14:13:19;17.80;1.00
22682;DHT22;11508;50.856;4.380;2023-03-29T14:15:58;17.80;99.90
22682;DHT22;11508;50.856;4.380;2023-03-29T14:18:32;17.90;1.00
22682;DHT22;11508;50.856;4.380;2023-03-29T14:20:59;18.00;27.40
22682;DHT22;11508;50.856;4.380;2023-03-29T14:23:31;18.00;1.00
22682;DHT22;11508;50.856;4.380;2023-03-29T14:26:27;17.90;99.90
22682;DHT22;11508;50.856;4.380;2023-03-29T14:28:56;17.90;99.90
22682;DHT22;11508;50.856;4.380;2023-03-29T14:31:41;17.90;99.90
22682;DHT22;11508;50.856;4.380;2023-03-29T14:34:16;17.90;1.00
22682;DHT22;11508;50.856;4.380;2023-03-29T14:36:47;17.80;28.30
22682;DHT22;11508;50.856;4.380;2023-03-29T14:39:18;17.70;99.90
22682;DHT22;11508;50.856;4.380;2023-03-29T14:41:52;17.60;99.90
22682;DHT22;11508;50.856;4.380;2023-03-29T14:44:20;17.50;1.00
22682;DHT22;11508;50.856;4.380;2023-03-29T14:46:47;17.40;99.90
22682;DHT22;11508;50.856;4.380;2023-03-29T14:49:15;17.50;99.90
22682;DHT22;11508;50.856;4.380;2023-03-29T14:51:45;17.50;99.90
22682;DHT22;11508;50.856;4.380;2023-03-29T14:54:42;17.40;99.90
22682;DHT22;11508;50.856;4.380;2023-03-29T14:57:14;17.40;99.90
22682;DHT22;11508;50.856;4.380;2023-03-29T14:59:41;17.60;99.90
22682;DHT22;11508;50.856;4.380;2023-03-29T15:02:26;17.50;99.90
22682;DHT22;11508;50.856;4.380;2023-03-29T15:04:57;17.40;99.90
22682;DHT22;11508;50.856;4.380;2023-03-29T15:07:27;17.30;99.90
22682;DHT22;11508;50.856;4.380;2023-03-29T15:09:53;17.30;99.90
22682;DHT22;11508;50.856;4.380;2023-03-29T15:12:19;17.30;99.90
22682;DHT22;11508;50.856;4.380;2023-03-29T15:14:48;17.30;99.90
22682;DHT22;11508;50.856;4.380;2023-03-29T15:17:38;17.50;99.90
22682;DHT22;11508;50.856;4.380;2023-03-29T15:20:22;17.50;99.90
22682;DHT22;11508;50.856;4.380;2023-03-29T15:25:26;17.40;99.90
22682;DHT22;11508;50.856;4.380;2023-03-29T15:27:55;17.40;99.90
22682;DHT22;11508;50.856;4.380;2023-03-29T15:30:32;17.30;99.90
22682;DHT22;11508;50.856;4.380;2023-03-29T15:33:22;17.50;99.90
22682;DHT22;11508;50.856;4.380;2023-03-29T15:35:50;17.70;8.00
22682;DHT22;11508;50.856;4.380;2023-03-29T15:38:17;17.80;1.00
22682;DHT22;11508;50.856;4.380;2023-03-29T15:40:43;17.70;1.00
22682;DHT22;11508;50.856;4.380;2023-03-29T15:43:09;17.70;1.00
22682;DHT22;11508;50.856;4.380;2023-03-29T15:45:35;17.70;25.90
22682;DHT22;11508;50.856;4.380;2023-03-29T15:48:01;17.80;99.90
22682;DHT22;11508;50.856;4.380;2023-03-29T15:50:30;17.80;99.90
22682;DHT22;11508;50.856;4.380;2023-03-29T15:52:56;17.80;99.90
22682;DHT22;11508;50.856;4.380;2023-03-29T15:55:25;17.60;99.90
22682;DHT22;11508;50.856;4.380;2023-03-29T15:57:54;17.80;99.90
22682;DHT22;11508;50.856;4.380;2023-03-29T16:00:22;17.90;73.60
22682;DHT22;11508;50.856;4.380;2023-03-29T16:02:48;17.90;1.00
22682;DHT22;11508;50.856;4.380;2023-03-29T16:05:13;18.00;99.90
22682;DHT22;11508;50.856;4.380;2023-03-29T16:07:39;17.90;99.90
22682;DHT22;11508;50.856;4.380;2023-03-29T16:10:05;17.80;99.90
22682;DHT22;11508;50.856;4.380;2023-03-29T16:12:31;17.60;99.90
22682;DHT22;11508;50.856;4.380;2023-03-29T16:14:56;17.70;99.90
22682;DHT22;11508;50.856;4.380;2023-03-29T16:17:22;17.50;99.90
22682;DHT22;11508;50.856;4.380;2023-03-29T16:19:48;17.50;99.90
22682;DHT22;11508;50.856;4.380;2023-03-29T16:22:13;17.60;99.90
22682;DHT22;11508;50.856;4.380;2023-03-29T16:24:39;17.50;99.90
22682;DHT22;11508;50.856;4.380;2023-03-29T16:27:06;17.50;99.90
22682;DHT22;11508;50.856;4.380;2023-03-29T16:29:31;17.50;24.40
22682;DHT22;11508;50.856;4.380;2023-03-29T16:31:57;17.60;99.90
22682;DHT22;11508;50.856;4.380;2023-03-29T16:34:23;17.50;99.90
22682;DHT22;11508;50.856;4.380;2023-03-29T16:36:50;17.50;99.90
22682;DHT22;11508;50.856;4.380;2023-03-29T16:39:17;17.50;99.90
22682;DHT22;11508;50.856;4.380;2023-03-29T16:41:44;17.50;99.90
22682;DHT22;11508;50.856;4.380;2023-03-29T16:44:15;17.60;1.00
22682;DHT22;11508;50.856;4.380;2023-03-29T16:46:49;17.60;1.00
22682;DHT22;11508;50.856;4.380;2023-03-29T16:49:28;17.60;99.90
22682;DHT22;11508;50.856;4.380;2023-03-29T16:51:54;17.50;99.90
22682;DHT22;11508;50.856;4.380;2023-03-29T16:54:20;17.50;99.90
22682;DHT22;11508;50.856;4.380;2023-03-29T16:56:46;17.50;99.90
22682;DHT22;11508;50.856;4.380;2023-03-29T16:59:11;17.60;1.00
22682;DHT22;11508;50.856;4.380;2023-03-29T17:01:37;17.50;1.00
22682;DHT22;11508;50.856;4.380;2023-03-29T17:04:03;17.50;1.00
22682;DHT22;11508;50.856;4.380;2023-03-29T17:06:29;17.40;1.00
22682;DHT22;11508;50.856;4.380;2023-03-29T17:08:57;17.30;1.00
22682;DHT22;11508;50.856;4.380;2023-03-29T17:11:23;17.40;84.90
22682;DHT22;11508;50.856;4.380;2023-03-29T17:13:50;17.60;1.00
22682;DHT22;11508;50.856;4.380;2023-03-29T17:16:16;17.60;1.00
22682;DHT22;11508;50.856;4.380;2023-03-29T17:18:42;17.60;1.00
22682;DHT22;11508;50.856;4.380;2023-03-29T17:21:08;17.60;1.00
22682;DHT22;11508;50.856;4.380;2023-03-29T17:23:33;17.50;99.90
22682;DHT22;11508;50.856;4.380;2023-03-29T17:26:00;17.50;99.90
22682;DHT22;11508;50.856;4.380;2023-03-29T17:28:27;17.50;99.90
22682;DHT22;11508;50.856;4.380;2023-03-29T17:30:54;17.30;1.00
22682;DHT22;11508;50.856;4.380;2023-03-29T17:33:20;17.30;99.90
22682;DHT22;11508;50.856;4.380;2023-03-29T17:35:50;17.30;99.90
22682;DHT22;11508;50.856;4.380;2023-03-29T17:38:16;17.10;94.10
22682;DHT22;11508;50.856;4.380;2023-03-29T17:40:41;17.00;1.00
22682;DHT22;11508;50.856;4.380;2023-03-29T17:43:07;17.00;99.90
22682;DHT22;11508;50.856;4.380;2023-03-29T17:45:33;17.00;99.90